sensor_id;sensor_type;location;lat;lon;timestamp;P1;durP1;ratioP1;P2;durP2;ratioP2
21554;SDS011;10938;44.794;-0.676;2022-09-09T00:10:17;8.40;;;2.13;;
21554;SDS011;10938;44.794;-0.676;2022-09-09T00:13:01;6.82;;;2.20;;
21554;SDS011;10938;44.794;-0.676;2022-09-09T00:15:59;8.60;;;2.60;;
21554;SDS011;10938;44.794;-0.676;2022-09-09T00:21:39;8.52;;;2.55;;
21554;SDS011;10938;44.794;-0.676;2022-09-09T00:24:14;6.47;;;2.25;;
21554;SDS011;10938;44.794;-0.676;2022-09-09T00:27:04;7.70;;;2.20;;
21554;SDS011;10938;44.794;-0.676;2022-09-09T00:30:12;4.85;;;2.28;;
21554;SDS011;10938;44.794;-0.676;2022-09-09T00:32:39;8.30;;;2.83;;
21554;SDS011;10938;44.794;-0.676;2022-09-09T00:37:42;7.03;;;2.55;;
21554;SDS011;10938;44.794;-0.676;2022-09-09T00:40:22;8.38;;;1.92;;
21554;SDS011;10938;44.794;-0.676;2022-09-09T00:42:48;6.20;;;2.25;;
21554;SDS011;10938;44.794;-0.676;2022-09-09T00:49:15;7.55;;;2.47;;
21554;SDS011;10938;44.794;-0.676;2022-09-09T00:51:28;8.20;;;2.83;;
21554;SDS011;10938;44.794;-0.676;2022-09-09T00:56:37;7.38;;;2.63;;
21554;SDS011;10938;44.794;-0.676;2022-09-09T01:01:35;10.38;;;2.67;;
21554;SDS011;10938;44.794;-0.676;2022-09-09T01:04:01;5.85;;;2.30;;
21554;SDS011;10938;44.794;-0.676;2022-09-09T01:06:35;8.00;;;3.08;;
21554;SDS011;10938;44.794;-0.676;2022-09-09T01:09:17;10.10;;;2.85;;
21554;SDS011;10938;44.794;-0.676;2022-09-09T01:17:23;7.18;;;1.98;;
21554;SDS011;10938;44.794;-0.676;2022-09-09T01:22:37;7.32;;;2.20;;
21554;SDS011;10938;44.794;-0.676;2022-09-09T01:28:23;5.95;;;1.70;;
21554;SDS011;10938;44.794;-0.676;2022-09-09T01:30:52;5.43;;;2.05;;
21554;SDS011;10938;44.794;-0.676;2022-09-09T01:33:20;7.20;;;2.17;;
21554;SDS011;10938;44.794;-0.676;2022-09-09T01:38:11;6.60;;;1.80;;
21554;SDS011;10938;44.794;-0.676;2022-09-09T01:40:37;7.82;;;2.17;;
21554;SDS011;10938;44.794;-0.676;2022-09-09T01:43:03;11.57;;;2.40;;
21554;SDS011;10938;44.794;-0.676;2022-09-09T01:45:29;6.30;;;2.03;;
21554;SDS011;10938;44.794;-0.676;2022-09-09T01:47:56;4.53;;;1.67;;
21554;SDS011;10938;44.794;-0.676;2022-09-09T01:50:22;5.32;;;1.80;;
21554;SDS011;10938;44.794;-0.676;2022-09-09T01:52:50;6.65;;;1.85;;
21554;SDS011;10938;44.794;-0.676;2022-09-09T01:55:25;5.15;;;1.83;;
21554;SDS011;10938;44.794;-0.676;2022-09-09T01:58:06;4.47;;;1.80;;
21554;SDS011;10938;44.794;-0.676;2022-09-09T02:00:34;5.05;;;1.67;;
21554;SDS011;10938;44.794;-0.676;2022-09-09T02:03:08;6.68;;;2.00;;
21554;SDS011;10938;44.794;-0.676;2022-09-09T02:05:45;7.68;;;2.30;;
21554;SDS011;10938;44.794;-0.676;2022-09-09T02:08:22;4.75;;;1.67;;
21554;SDS011;10938;44.794;-0.676;2022-09-09T02:13:47;4.40;;;1.30;;
21554;SDS011;10938;44.794;-0.676;2022-09-09T02:16:25;4.55;;;1.48;;
21554;SDS011;10938;44.794;-0.676;2022-09-09T02:21:33;4.63;;;1.65;;
21554;SDS011;10938;44.794;-0.676;2022-09-09T02:24:00;3.05;;;1.42;;
21554;SDS011;10938;44.794;-0.676;2022-09-09T02:26:29;3.92;;;1.38;;
21554;SDS011;10938;44.794;-0.676;2022-09-09T02:28:58;5.70;;;1.40;;
21554;SDS011;10938;44.794;-0.676;2022-09-09T02:31:29;4.70;;;1.42;;
21554;SDS011;10938;44.794;-0.676;2022-09-09T02:33:58;3.15;;;1.55;;
21554;SDS011;10938;44.794;-0.676;2022-09-09T02:36:27;5.15;;;1.58;;
21554;SDS011;10938;44.794;-0.676;2022-09-09T02:38:58;5.60;;;1.70;;
21554;SDS011;10938;44.794;-0.676;2022-09-09T02:41:35;7.18;;;1.55;;
21554;SDS011;10938;44.794;-0.676;2022-09-09T02:44:05;11.45;;;2.17;;
21554;SDS011;10938;44.794;-0.676;2022-09-09T02:52:18;10.30;;;1.83;;
21554;SDS011;10938;44.794;-0.676;2022-09-09T02:54:49;8.32;;;1.65;;
21554;SDS011;10938;44.794;-0.676;2022-09-09T02:57:23;5.45;;;1.55;;
21554;SDS011;10938;44.794;-0.676;2022-09-09T02:59:52;5.40;;;2.00;;
21554;SDS011;10938;44.794;-0.676;2022-09-09T03:02:18;5.93;;;1.80;;
21554;SDS011;10938;44.794;-0.676;2022-09-09T03:04:44;6.45;;;1.55;;
21554;SDS011;10938;44.794;-0.676;2022-09-09T03:07:10;8.73;;;1.90;;
21554;SDS011;10938;44.794;-0.676;2022-09-09T03:09:35;5.40;;;1.60;;
21554;SDS011;10938;44.794;-0.676;2022-09-09T03:12:01;7.70;;;1.65;;
21554;SDS011;10938;44.794;-0.676;2022-09-09T03:14:29;8.85;;;1.98;;
21554;SDS011;10938;44.794;-0.676;2022-09-09T03:16:55;9.80;;;1.50;;
21554;SDS011;10938;44.794;-0.676;2022-09-09T03:19:22;4.38;;;1.10;;
21554;SDS011;10938;44.794;-0.676;2022-09-09T03:21:48;5.50;;;1.73;;
21554;SDS011;10938;44.794;-0.676;2022-09-09T03:24:14;4.68;;;1.52;;
21554;SDS011;10938;44.794;-0.676;2022-09-09T03:26:40;7.65;;;1.50;;
21554;SDS011;10938;44.794;-0.676;2022-09-09T03:29:06;5.78;;;1.75;;
21554;SDS011;10938;44.794;-0.676;2022-09-09T03:31:33;9.60;;;1.77;;
21554;SDS011;10938;44.794;-0.676;2022-09-09T03:34:01;5.70;;;1.40;;
21554;SDS011;10938;44.794;-0.676;2022-09-09T03:36:27;5.28;;;1.70;;
21554;SDS011;10938;44.794;-0.676;2022-09-09T03:38:53;7.20;;;1.50;;
21554;SDS011;10938;44.794;-0.676;2022-09-09T03:41:20;7.28;;;1.40;;
21554;SDS011;10938;44.794;-0.676;2022-09-09T03:43:47;6.03;;;1.75;;
21554;SDS011;10938;44.794;-0.676;2022-09-09T03:46:12;6.97;;;1.63;;
21554;SDS011;10938;44.794;-0.676;2022-09-09T03:48:37;9.90;;;2.25;;
21554;SDS011;10938;44.794;-0.676;2022-09-09T03:51:03;7.80;;;1.95;;
21554;SDS011;10938;44.794;-0.676;2022-09-09T03:53:29;7.70;;;1.58;;
21554;SDS011;10938;44.794;-0.676;2022-09-09T03:55:55;6.78;;;1.63;;
21554;SDS011;10938;44.794;-0.676;2022-09-09T03:58:25;8.13;;;2.15;;
21554;SDS011;10938;44.794;-0.676;2022-09-09T04:00:55;5.53;;;1.40;;
21554;SDS011;10938;44.794;-0.676;2022-09-09T04:03:31;8.75;;;1.77;;
21554;SDS011;10938;44.794;-0.676;2022-09-09T04:05:57;3.97;;;1.35;;
21554;SDS011;10938;44.794;-0.676;2022-09-09T04:08:24;6.43;;;1.60;;
21554;SDS011;10938;44.794;-0.676;2022-09-09T04:10:51;6.38;;;1.60;;
21554;SDS011;10938;44.794;-0.676;2022-09-09T04:13:17;7.18;;;1.92;;
21554;SDS011;10938;44.794;-0.676;2022-09-09T04:15:49;3.88;;;1.85;;
21554;SDS011;10938;44.794;-0.676;2022-09-09T04:18:19;4.93;;;1.30;;
21554;SDS011;10938;44.794;-0.676;2022-09-09T04:20:48;7.75;;;1.98;;
21554;SDS011;10938;44.794;-0.676;2022-09-09T04:23:15;4.75;;;1.77;;
21554;SDS011;10938;44.794;-0.676;2022-09-09T04:25:47;4.32;;;1.70;;
21554;SDS011;10938;44.794;-0.676;2022-09-09T04:28:14;4.40;;;1.45;;
21554;SDS011;10938;44.794;-0.676;2022-09-09T04:30:41;6.45;;;1.33;;
21554;SDS011;10938;44.794;-0.676;2022-09-09T04:33:08;5.30;;;1.67;;
21554;SDS011;10938;44.794;-0.676;2022-09-09T04:35:35;4.05;;;1.20;;
21554;SDS011;10938;44.794;-0.676;2022-09-09T04:38:01;7.03;;;1.25;;
21554;SDS011;10938;44.794;-0.676;2022-09-09T04:40:30;6.35;;;1.88;;
21554;SDS011;10938;44.794;-0.676;2022-09-09T04:43:00;7.00;;;1.95;;
21554;SDS011;10938;44.794;-0.676;2022-09-09T04:45:28;2.90;;;1.30;;
21554;SDS011;10938;44.794;-0.676;2022-09-09T04:47:54;3.40;;;1.52;;
21554;SDS011;10938;44.794;-0.676;2022-09-09T04:50:20;2.80;;;1.33;;
21554;SDS011;10938;44.794;-0.676;2022-09-09T04:52:45;3.92;;;1.40;;
21554;SDS011;10938;44.794;-0.676;2022-09-09T04:55:11;5.50;;;1.58;;
21554;SDS011;10938;44.794;-0.676;2022-09-09T04:57:38;5.45;;;1.50;;
21554;SDS011;10938;44.794;-0.676;2022-09-09T05:00:04;6.75;;;1.65;;
21554;SDS011;10938;44.794;-0.676;2022-09-09T05:02:30;8.00;;;1.63;;
21554;SDS011;10938;44.794;-0.676;2022-09-09T05:04:55;8.80;;;1.55;;
21554;SDS011;10938;44.794;-0.676;2022-09-09T05:07:21;4.53;;;1.73;;
21554;SDS011;10938;44.794;-0.676;2022-09-09T05:09:46;7.47;;;1.60;;
21554;SDS011;10938;44.794;-0.676;2022-09-09T05:12:14;8.60;;;2.10;;
21554;SDS011;10938;44.794;-0.676;2022-09-09T05:14:41;4.03;;;1.35;;
21554;SDS011;10938;44.794;-0.676;2022-09-09T05:17:07;4.60;;;1.70;;
21554;SDS011;10938;44.794;-0.676;2022-09-09T05:19:33;5.93;;;1.70;;
21554;SDS011;10938;44.794;-0.676;2022-09-09T05:21:58;5.13;;;1.50;;
21554;SDS011;10938;44.794;-0.676;2022-09-09T05:24:27;4.38;;;1.52;;
21554;SDS011;10938;44.794;-0.676;2022-09-09T05:26:52;5.50;;;1.65;;
21554;SDS011;10938;44.794;-0.676;2022-09-09T05:29:18;7.13;;;2.00;;
21554;SDS011;10938;44.794;-0.676;2022-09-09T05:31:46;16.90;;;2.22;;
21554;SDS011;10938;44.794;-0.676;2022-09-09T05:34:12;7.43;;;1.75;;
21554;SDS011;10938;44.794;-0.676;2022-09-09T05:36:37;7.53;;;2.30;;
21554;SDS011;10938;44.794;-0.676;2022-09-09T05:39:03;4.82;;;1.65;;
21554;SDS011;10938;44.794;-0.676;2022-09-09T05:41:29;7.65;;;2.28;;
21554;SDS011;10938;44.794;-0.676;2022-09-09T05:43:55;8.23;;;2.10;;
21554;SDS011;10938;44.794;-0.676;2022-09-09T05:46:22;7.50;;;1.85;;
21554;SDS011;10938;44.794;-0.676;2022-09-09T05:48:50;8.13;;;1.95;;
21554;SDS011;10938;44.794;-0.676;2022-09-09T05:51:20;9.05;;;1.95;;
21554;SDS011;10938;44.794;-0.676;2022-09-09T05:53:49;6.18;;;1.85;;
21554;SDS011;10938;44.794;-0.676;2022-09-09T05:56:18;7.80;;;1.70;;
21554;SDS011;10938;44.794;-0.676;2022-09-09T05:58:46;6.53;;;2.00;;
21554;SDS011;10938;44.794;-0.676;2022-09-09T06:01:13;7.50;;;1.77;;
21554;SDS011;10938;44.794;-0.676;2022-09-09T06:03:41;7.90;;;1.90;;
21554;SDS011;10938;44.794;-0.676;2022-09-09T06:06:09;7.78;;;1.75;;
21554;SDS011;10938;44.794;-0.676;2022-09-09T06:08:37;6.55;;;1.85;;
21554;SDS011;10938;44.794;-0.676;2022-09-09T06:11:05;6.20;;;1.33;;
21554;SDS011;10938;44.794;-0.676;2022-09-09T06:13:33;8.68;;;1.70;;
21554;SDS011;10938;44.794;-0.676;2022-09-09T06:15:58;4.15;;;1.67;;
21554;SDS011;10938;44.794;-0.676;2022-09-09T06:18:24;4.22;;;1.50;;
21554;SDS011;10938;44.794;-0.676;2022-09-09T06:20:57;5.90;;;1.73;;
21554;SDS011;10938;44.794;-0.676;2022-09-09T06:23:31;3.65;;;1.80;;
21554;SDS011;10938;44.794;-0.676;2022-09-09T06:26:04;6.80;;;1.92;;
21554;SDS011;10938;44.794;-0.676;2022-09-09T06:28:31;7.15;;;1.90;;
21554;SDS011;10938;44.794;-0.676;2022-09-09T06:31:07;5.70;;;1.90;;
21554;SDS011;10938;44.794;-0.676;2022-09-09T06:33:35;4.30;;;1.67;;
21554;SDS011;10938;44.794;-0.676;2022-09-09T06:36:04;6.97;;;2.30;;
21554;SDS011;10938;44.794;-0.676;2022-09-09T06:38:35;5.03;;;2.13;;
21554;SDS011;10938;44.794;-0.676;2022-09-09T06:41:04;3.60;;;1.55;;
21554;SDS011;10938;44.794;-0.676;2022-09-09T06:43:30;6.47;;;2.42;;
21554;SDS011;10938;44.794;-0.676;2022-09-09T06:45:57;6.32;;;1.80;;
21554;SDS011;10938;44.794;-0.676;2022-09-09T06:48:24;7.45;;;1.75;;
21554;SDS011;10938;44.794;-0.676;2022-09-09T06:51:04;5.22;;;2.13;;
21554;SDS011;10938;44.794;-0.676;2022-09-09T06:53:30;6.65;;;2.30;;
21554;SDS011;10938;44.794;-0.676;2022-09-09T06:58:43;6.13;;;2.00;;
21554;SDS011;10938;44.794;-0.676;2022-09-09T07:01:11;5.38;;;2.03;;
21554;SDS011;10938;44.794;-0.676;2022-09-09T07:03:40;6.95;;;2.25;;
21554;SDS011;10938;44.794;-0.676;2022-09-09T07:06:14;6.85;;;1.95;;
21554;SDS011;10938;44.794;-0.676;2022-09-09T07:08:42;8.10;;;2.50;;
21554;SDS011;10938;44.794;-0.676;2022-09-09T07:11:08;4.80;;;2.50;;
21554;SDS011;10938;44.794;-0.676;2022-09-09T07:13:37;7.65;;;2.60;;
21554;SDS011;10938;44.794;-0.676;2022-09-09T07:16:05;8.90;;;2.10;;
21554;SDS011;10938;44.794;-0.676;2022-09-09T07:18:31;6.60;;;2.00;;
21554;SDS011;10938;44.794;-0.676;2022-09-09T07:20:58;6.55;;;2.60;;
21554;SDS011;10938;44.794;-0.676;2022-09-09T07:23:24;6.90;;;1.90;;
21554;SDS011;10938;44.794;-0.676;2022-09-09T07:25:50;5.55;;;2.10;;
21554;SDS011;10938;44.794;-0.676;2022-09-09T07:28:16;6.78;;;2.40;;
21554;SDS011;10938;44.794;-0.676;2022-09-09T07:30:42;4.80;;;2.17;;
21554;SDS011;10938;44.794;-0.676;2022-09-09T07:33:08;5.97;;;2.47;;
21554;SDS011;10938;44.794;-0.676;2022-09-09T07:35:34;5.70;;;2.30;;
21554;SDS011;10938;44.794;-0.676;2022-09-09T07:38:02;7.03;;;2.53;;
21554;SDS011;10938;44.794;-0.676;2022-09-09T07:40:29;7.10;;;2.65;;
21554;SDS011;10938;44.794;-0.676;2022-09-09T07:42:55;5.25;;;2.20;;
21554;SDS011;10938;44.794;-0.676;2022-09-09T07:45:20;8.18;;;2.30;;
21554;SDS011;10938;44.794;-0.676;2022-09-09T07:47:46;5.53;;;2.33;;
21554;SDS011;10938;44.794;-0.676;2022-09-09T07:50:13;6.15;;;2.30;;
21554;SDS011;10938;44.794;-0.676;2022-09-09T07:52:38;8.70;;;2.47;;
21554;SDS011;10938;44.794;-0.676;2022-09-09T07:55:03;5.50;;;2.15;;
21554;SDS011;10938;44.794;-0.676;2022-09-09T07:57:29;8.52;;;2.08;;
21554;SDS011;10938;44.794;-0.676;2022-09-09T07:59:56;9.43;;;2.53;;
21554;SDS011;10938;44.794;-0.676;2022-09-09T08:02:22;7.47;;;2.42;;
21554;SDS011;10938;44.794;-0.676;2022-09-09T08:04:48;7.18;;;2.15;;
21554;SDS011;10938;44.794;-0.676;2022-09-09T08:07:14;7.13;;;2.28;;
21554;SDS011;10938;44.794;-0.676;2022-09-09T08:09:39;5.63;;;2.05;;
21554;SDS011;10938;44.794;-0.676;2022-09-09T08:12:04;8.02;;;2.17;;
21554;SDS011;10938;44.794;-0.676;2022-09-09T08:14:33;6.22;;;2.38;;
21554;SDS011;10938;44.794;-0.676;2022-09-09T08:16:58;7.07;;;2.28;;
21554;SDS011;10938;44.794;-0.676;2022-09-09T08:19:24;8.57;;;2.65;;
21554;SDS011;10938;44.794;-0.676;2022-09-09T08:21:51;10.05;;;2.25;;
21554;SDS011;10938;44.794;-0.676;2022-09-09T08:24:17;8.48;;;2.30;;
21554;SDS011;10938;44.794;-0.676;2022-09-09T08:26:45;9.85;;;2.78;;
21554;SDS011;10938;44.794;-0.676;2022-09-09T08:29:15;8.77;;;2.47;;
21554;SDS011;10938;44.794;-0.676;2022-09-09T08:31:45;9.02;;;2.70;;
21554;SDS011;10938;44.794;-0.676;2022-09-09T08:34:12;5.85;;;2.42;;
21554;SDS011;10938;44.794;-0.676;2022-09-09T08:36:39;6.80;;;2.25;;
21554;SDS011;10938;44.794;-0.676;2022-09-09T08:39:07;8.77;;;2.60;;
21554;SDS011;10938;44.794;-0.676;2022-09-09T08:49:38;10.75;;;2.03;;
21554;SDS011;10938;44.794;-0.676;2022-09-09T08:52:25;10.75;;;1.90;;
21554;SDS011;10938;44.794;-0.676;2022-09-09T08:54:54;5.60;;;1.83;;
21554;SDS011;10938;44.794;-0.676;2022-09-09T08:57:37;6.83;;;1.63;;
21554;SDS011;10938;44.794;-0.676;2022-09-09T09:00:04;7.97;;;2.00;;
21554;SDS011;10938;44.794;-0.676;2022-09-09T09:02:37;4.07;;;1.80;;
21554;SDS011;10938;44.794;-0.676;2022-09-09T09:10:37;7.88;;;1.60;;
21554;SDS011;10938;44.794;-0.676;2022-09-09T09:13:13;6.93;;;2.20;;
21554;SDS011;10938;44.794;-0.676;2022-09-09T09:15:41;8.35;;;1.85;;
21554;SDS011;10938;44.794;-0.676;2022-09-09T09:18:10;7.57;;;1.60;;
21554;SDS011;10938;44.794;-0.676;2022-09-09T09:20:47;5.85;;;1.70;;
21554;SDS011;10938;44.794;-0.676;2022-09-09T09:23:24;9.20;;;2.00;;
21554;SDS011;10938;44.794;-0.676;2022-09-09T09:25:52;8.82;;;2.13;;
21554;SDS011;10938;44.794;-0.676;2022-09-09T09:28:24;7.60;;;1.80;;
21554;SDS011;10938;44.794;-0.676;2022-09-09T09:30:55;5.65;;;1.48;;
21554;SDS011;10938;44.794;-0.676;2022-09-09T09:36:24;5.05;;;1.48;;
21554;SDS011;10938;44.794;-0.676;2022-09-09T09:38:59;4.18;;;1.40;;
21554;SDS011;10938;44.794;-0.676;2022-09-09T09:44:27;6.47;;;1.60;;
21554;SDS011;10938;44.794;-0.676;2022-09-09T09:47:39;6.80;;;1.70;;
21554;SDS011;10938;44.794;-0.676;2022-09-09T09:49:54;9.60;;;1.90;;
21554;SDS011;10938;44.794;-0.676;2022-09-09T09:52:30;3.95;;;1.50;;
21554;SDS011;10938;44.794;-0.676;2022-09-09T09:54:57;5.50;;;1.80;;
21554;SDS011;10938;44.794;-0.676;2022-09-09T09:57:28;6.35;;;1.50;;
21554;SDS011;10938;44.794;-0.676;2022-09-09T10:02:46;5.03;;;1.83;;
21554;SDS011;10938;44.794;-0.676;2022-09-09T10:05:13;5.80;;;2.10;;
21554;SDS011;10938;44.794;-0.676;2022-09-09T10:07:46;7.03;;;1.40;;
21554;SDS011;10938;44.794;-0.676;2022-09-09T10:10:26;10.02;;;2.47;;
21554;SDS011;10938;44.794;-0.676;2022-09-09T10:13:11;8.05;;;2.22;;
21554;SDS011;10938;44.794;-0.676;2022-09-09T10:34:52;3.20;;;1.15;;
21554;SDS011;10938;44.794;-0.676;2022-09-09T10:40:33;5.57;;;1.70;;
21554;SDS011;10938;44.794;-0.676;2022-09-09T10:51:22;5.85;;;1.65;;
21554;SDS011;10938;44.794;-0.676;2022-09-09T10:56:38;7.38;;;1.65;;
21554;SDS011;10938;44.794;-0.676;2022-09-09T10:59:10;6.20;;;1.25;;
21554;SDS011;10938;44.794;-0.676;2022-09-09T11:01:51;9.80;;;1.60;;
21554;SDS011;10938;44.794;-0.676;2022-09-09T11:04:23;4.75;;;1.33;;
21554;SDS011;10938;44.794;-0.676;2022-09-09T11:06:57;7.60;;;1.87;;
21554;SDS011;10938;44.794;-0.676;2022-09-09T11:09:26;4.32;;;1.33;;
21554;SDS011;10938;44.794;-0.676;2022-09-09T11:11:57;6.28;;;1.70;;
21554;SDS011;10938;44.794;-0.676;2022-09-09T11:14:29;7.80;;;1.50;;
21554;SDS011;10938;44.794;-0.676;2022-09-09T11:17:15;4.40;;;1.40;;
21554;SDS011;10938;44.794;-0.676;2022-09-09T11:19:43;4.85;;;1.23;;
21554;SDS011;10938;44.794;-0.676;2022-09-09T11:24:55;8.15;;;1.90;;
21554;SDS011;10938;44.794;-0.676;2022-09-09T11:30:21;6.25;;;1.30;;
21554;SDS011;10938;44.794;-0.676;2022-09-09T11:38:50;6.10;;;1.40;;
21554;SDS011;10938;44.794;-0.676;2022-09-09T11:41:17;3.28;;;1.00;;
21554;SDS011;10938;44.794;-0.676;2022-09-09T11:43:46;5.22;;;1.38;;
21554;SDS011;10938;44.794;-0.676;2022-09-09T11:46:16;4.35;;;1.15;;
21554;SDS011;10938;44.794;-0.676;2022-09-09T11:48:46;3.58;;;1.00;;
21554;SDS011;10938;44.794;-0.676;2022-09-09T11:51:26;5.35;;;1.58;;
21554;SDS011;10938;44.794;-0.676;2022-09-09T11:59:28;12.13;;;2.22;;
21554;SDS011;10938;44.794;-0.676;2022-09-09T12:06:51;6.72;;;1.55;;
21554;SDS011;10938;44.794;-0.676;2022-09-09T12:09:22;6.30;;;1.38;;
21554;SDS011;10938;44.794;-0.676;2022-09-09T12:12:04;4.67;;;1.27;;
21554;SDS011;10938;44.794;-0.676;2022-09-09T12:19:39;6.53;;;1.27;;
21554;SDS011;10938;44.794;-0.676;2022-09-09T12:22:11;3.70;;;1.23;;
21554;SDS011;10938;44.794;-0.676;2022-09-09T12:28:20;5.15;;;1.30;;
21554;SDS011;10938;44.794;-0.676;2022-09-09T12:31:12;7.70;;;1.65;;
21554;SDS011;10938;44.794;-0.676;2022-09-09T12:33:42;5.35;;;1.23;;
21554;SDS011;10938;44.794;-0.676;2022-09-09T12:36:18;4.38;;;1.20;;
21554;SDS011;10938;44.794;-0.676;2022-09-09T12:38:49;8.45;;;1.40;;
21554;SDS011;10938;44.794;-0.676;2022-09-09T12:41:20;7.65;;;1.38;;
21554;SDS011;10938;44.794;-0.676;2022-09-09T12:43:48;5.55;;;1.10;;
21554;SDS011;10938;44.794;-0.676;2022-09-09T12:46:30;5.93;;;1.27;;
21554;SDS011;10938;44.794;-0.676;2022-09-09T12:49:03;5.35;;;1.40;;
21554;SDS011;10938;44.794;-0.676;2022-09-09T12:51:30;7.88;;;1.30;;
21554;SDS011;10938;44.794;-0.676;2022-09-09T12:54:00;4.65;;;1.50;;
21554;SDS011;10938;44.794;-0.676;2022-09-09T12:56:26;4.70;;;1.10;;
21554;SDS011;10938;44.794;-0.676;2022-09-09T12:58:55;6.32;;;1.40;;
21554;SDS011;10938;44.794;-0.676;2022-09-09T13:01:23;4.75;;;1.27;;
21554;SDS011;10938;44.794;-0.676;2022-09-09T13:03:50;5.30;;;1.33;;
21554;SDS011;10938;44.794;-0.676;2022-09-09T13:06:22;2.65;;;1.23;;
21554;SDS011;10938;44.794;-0.676;2022-09-09T13:08:55;3.10;;;0.90;;
21554;SDS011;10938;44.794;-0.676;2022-09-09T13:12:10;6.65;;;1.50;;
21554;SDS011;10938;44.794;-0.676;2022-09-09T13:14:26;3.22;;;1.10;;
21554;SDS011;10938;44.794;-0.676;2022-09-09T13:16:59;4.97;;;1.52;;
21554;SDS011;10938;44.794;-0.676;2022-09-09T13:19:26;3.53;;;1.00;;
21554;SDS011;10938;44.794;-0.676;2022-09-09T13:21:56;3.50;;;1.30;;
21554;SDS011;10938;44.794;-0.676;2022-09-09T13:24:30;3.63;;;1.13;;
21554;SDS011;10938;44.794;-0.676;2022-09-09T13:26:57;3.58;;;1.27;;
21554;SDS011;10938;44.794;-0.676;2022-09-09T13:29:50;4.25;;;1.10;;
21554;SDS011;10938;44.794;-0.676;2022-09-09T13:32:20;6.57;;;1.35;;
21554;SDS011;10938;44.794;-0.676;2022-09-09T13:39:52;3.78;;;1.20;;
21554;SDS011;10938;44.794;-0.676;2022-09-09T13:42:29;4.10;;;1.70;;
21554;SDS011;10938;44.794;-0.676;2022-09-09T13:44:57;6.70;;;1.20;;
21554;SDS011;10938;44.794;-0.676;2022-09-09T13:47:35;6.47;;;1.25;;
21554;SDS011;10938;44.794;-0.676;2022-09-09T13:52:46;7.80;;;1.83;;
21554;SDS011;10938;44.794;-0.676;2022-09-09T13:55:14;5.05;;;1.33;;
21554;SDS011;10938;44.794;-0.676;2022-09-09T13:57:39;3.22;;;1.15;;
21554;SDS011;10938;44.794;-0.676;2022-09-09T14:00:35;4.03;;;1.05;;
21554;SDS011;10938;44.794;-0.676;2022-09-09T14:03:00;5.10;;;1.10;;
21554;SDS011;10938;44.794;-0.676;2022-09-09T14:05:30;4.45;;;1.20;;
21554;SDS011;10938;44.794;-0.676;2022-09-09T14:07:58;5.70;;;1.08;;
21554;SDS011;10938;44.794;-0.676;2022-09-09T14:10:25;5.57;;;1.38;;
21554;SDS011;10938;44.794;-0.676;2022-09-09T14:12:51;5.53;;;1.20;;
21554;SDS011;10938;44.794;-0.676;2022-09-09T14:15:16;5.65;;;1.00;;
21554;SDS011;10938;44.794;-0.676;2022-09-09T14:17:42;6.13;;;1.10;;
21554;SDS011;10938;44.794;-0.676;2022-09-09T14:20:08;3.60;;;0.82;;
21554;SDS011;10938;44.794;-0.676;2022-09-09T14:22:36;6.25;;;1.50;;
21554;SDS011;10938;44.794;-0.676;2022-09-09T14:25:04;4.07;;;1.10;;
21554;SDS011;10938;44.794;-0.676;2022-09-09T14:27:31;3.33;;;1.00;;
21554;SDS011;10938;44.794;-0.676;2022-09-09T14:29:58;4.32;;;1.38;;
21554;SDS011;10938;44.794;-0.676;2022-09-09T14:32:25;3.13;;;1.33;;
21554;SDS011;10938;44.794;-0.676;2022-09-09T14:34:51;2.38;;;1.00;;
21554;SDS011;10938;44.794;-0.676;2022-09-09T14:37:17;2.58;;;0.82;;
21554;SDS011;10938;44.794;-0.676;2022-09-09T14:39:43;1.98;;;0.73;;
21554;SDS011;10938;44.794;-0.676;2022-09-09T14:42:09;9.95;;;1.48;;
21554;SDS011;10938;44.794;-0.676;2022-09-09T14:44:38;5.35;;;1.00;;
21554;SDS011;10938;44.794;-0.676;2022-09-09T14:47:04;7.47;;;1.77;;
21554;SDS011;10938;44.794;-0.676;2022-09-09T14:49:30;6.22;;;1.50;;
21554;SDS011;10938;44.794;-0.676;2022-09-09T14:51:56;6.43;;;1.40;;
21554;SDS011;10938;44.794;-0.676;2022-09-09T14:54:22;4.35;;;0.98;;
21554;SDS011;10938;44.794;-0.676;2022-09-09T14:56:50;3.95;;;1.15;;
21554;SDS011;10938;44.794;-0.676;2022-09-09T14:59:39;3.83;;;0.95;;
21554;SDS011;10938;44.794;-0.676;2022-09-09T15:02:04;4.13;;;1.50;;
21554;SDS011;10938;44.794;-0.676;2022-09-09T15:04:30;5.07;;;1.30;;
21554;SDS011;10938;44.794;-0.676;2022-09-09T15:06:55;2.70;;;1.00;;
21554;SDS011;10938;44.794;-0.676;2022-09-09T15:09:21;3.65;;;1.30;;
21554;SDS011;10938;44.794;-0.676;2022-09-09T15:11:47;2.63;;;0.90;;
21554;SDS011;10938;44.794;-0.676;2022-09-09T15:14:14;3.10;;;1.17;;
21554;SDS011;10938;44.794;-0.676;2022-09-09T15:16:40;2.70;;;1.20;;
21554;SDS011;10938;44.794;-0.676;2022-09-09T15:19:07;5.32;;;1.00;;
21554;SDS011;10938;44.794;-0.676;2022-09-09T15:21:34;6.93;;;1.40;;
21554;SDS011;10938;44.794;-0.676;2022-09-09T15:24:01;5.75;;;1.23;;
21554;SDS011;10938;44.794;-0.676;2022-09-09T15:26:27;4.57;;;1.10;;
21554;SDS011;10938;44.794;-0.676;2022-09-09T15:28:53;6.07;;;1.00;;
21554;SDS011;10938;44.794;-0.676;2022-09-09T15:31:20;3.30;;;1.00;;
21554;SDS011;10938;44.794;-0.676;2022-09-09T15:36:26;4.53;;;1.23;;
21554;SDS011;10938;44.794;-0.676;2022-09-09T15:38:53;4.80;;;1.02;;
21554;SDS011;10938;44.794;-0.676;2022-09-09T15:41:20;3.88;;;0.90;;
21554;SDS011;10938;44.794;-0.676;2022-09-09T15:43:47;5.57;;;1.13;;
21554;SDS011;10938;44.794;-0.676;2022-09-09T15:51:31;3.38;;;1.30;;
21554;SDS011;10938;44.794;-0.676;2022-09-09T15:53:57;3.78;;;1.38;;
21554;SDS011;10938;44.794;-0.676;2022-09-09T15:56:25;5.40;;;1.23;;
21554;SDS011;10938;44.794;-0.676;2022-09-09T15:58:52;5.22;;;1.08;;
21554;SDS011;10938;44.794;-0.676;2022-09-09T16:01:18;5.72;;;1.20;;
21554;SDS011;10938;44.794;-0.676;2022-09-09T16:03:44;4.30;;;0.90;;
21554;SDS011;10938;44.794;-0.676;2022-09-09T16:06:11;5.03;;;1.10;;
21554;SDS011;10938;44.794;-0.676;2022-09-09T16:08:40;6.18;;;1.10;;
21554;SDS011;10938;44.794;-0.676;2022-09-09T16:11:18;3.65;;;1.05;;
21554;SDS011;10938;44.794;-0.676;2022-09-09T16:13:46;5.53;;;1.08;;
21554;SDS011;10938;44.794;-0.676;2022-09-09T16:16:14;5.03;;;1.02;;
21554;SDS011;10938;44.794;-0.676;2022-09-09T16:18:42;3.50;;;0.80;;
21554;SDS011;10938;44.794;-0.676;2022-09-09T16:21:13;3.78;;;1.17;;
21554;SDS011;10938;44.794;-0.676;2022-09-09T16:23:46;4.15;;;1.10;;
21554;SDS011;10938;44.794;-0.676;2022-09-09T16:26:14;5.18;;;1.10;;
21554;SDS011;10938;44.794;-0.676;2022-09-09T16:28:41;4.30;;;1.00;;
21554;SDS011;10938;44.794;-0.676;2022-09-09T16:31:07;3.30;;;1.13;;
21554;SDS011;10938;44.794;-0.676;2022-09-09T16:33:35;3.90;;;1.10;;
21554;SDS011;10938;44.794;-0.676;2022-09-09T16:36:05;4.55;;;1.20;;
21554;SDS011;10938;44.794;-0.676;2022-09-09T16:38:31;4.95;;;1.10;;
21554;SDS011;10938;44.794;-0.676;2022-09-09T16:41:01;3.72;;;1.08;;
21554;SDS011;10938;44.794;-0.676;2022-09-09T16:43:27;6.00;;;1.10;;
21554;SDS011;10938;44.794;-0.676;2022-09-09T16:45:53;3.33;;;0.98;;
21554;SDS011;10938;44.794;-0.676;2022-09-09T16:48:18;4.82;;;1.55;;
21554;SDS011;10938;44.794;-0.676;2022-09-09T16:50:44;5.95;;;1.17;;
21554;SDS011;10938;44.794;-0.676;2022-09-09T16:53:10;5.15;;;1.33;;
21554;SDS011;10938;44.794;-0.676;2022-09-09T16:55:40;4.80;;;1.23;;
21554;SDS011;10938;44.794;-0.676;2022-09-09T16:58:07;3.28;;;1.20;;
21554;SDS011;10938;44.794;-0.676;2022-09-09T17:00:35;4.80;;;1.23;;
21554;SDS011;10938;44.794;-0.676;2022-09-09T17:03:01;3.42;;;0.98;;
21554;SDS011;10938;44.794;-0.676;2022-09-09T17:05:27;4.30;;;1.25;;
21554;SDS011;10938;44.794;-0.676;2022-09-09T17:07:54;6.28;;;1.13;;
21554;SDS011;10938;44.794;-0.676;2022-09-09T17:10:24;6.05;;;1.10;;
21554;SDS011;10938;44.794;-0.676;2022-09-09T17:12:50;4.60;;;1.10;;
21554;SDS011;10938;44.794;-0.676;2022-09-09T17:15:16;6.45;;;1.38;;
21554;SDS011;10938;44.794;-0.676;2022-09-09T17:17:43;6.63;;;1.50;;
21554;SDS011;10938;44.794;-0.676;2022-09-09T17:20:10;5.45;;;1.23;;